Portada
METAR-TAF:

METAR-TAF

Aeropuertos :

Natashquan, Quebec, Canadá

latitud: 50-11N, longitud: 061-49W, altitud: 7 m

Observación

El informe se hizo hace 31 horas y 18 minutos, a las 00:00 UTC
Viento 9 kt del sur-suroeste
Temperatura 16°C
Humedad 82%
Presión 1021 hPa
Visibilidad: 14.5 km
Cielo despejado

METAR: CYNA 210000Z AUTO 21009KT 9SM CLR 16/13 A3014 RMK SLP208

Hora: 03:18 (07:18 UTC)

Pronóstico

El informe se hizo hace 17 horas y 40 minutos, a las 13:38 UTC
Pronóstico válido del 20 a las 14 UTC al 21 a las 02 UTC
Viento 10 kt del suroeste
Visibilidad: 10 km
Cielo despejado
Evolucionando progresivamente
del 21 a las 00 UTC al 21 a las 02 UTC
Viento 3 kt con dirección variable

TAF: CYNA 201338Z 2014/2102 22010KT P6SM SKC BECMG 2100/2102 VRB03KT RMK FCST BASED ON AUTO OBS. NXT FCST BY 202000Z

Observaciones y pronósticos meteorológicos de más de 4000 aeropuertos (mensajes METAR y TAF).

Los puntos amarillos y rojos representan las estaciones disponibles.

Ponga el ratón en el punto deseado para ver el nombre de la estación.

Haga clic para ver las observaciones y los pronósticos meteorológicos.

Para cambiar el mapa : haga clic en los botones verdes con una cruz de color negro para hacer un zoom, en el botón verde con un guión para alejar o en las flechas verdes para mapas adyacentes.


METAR-TAF: